MUHG

Frank Pais Airport

Airport
ICAO code
MUHG
IATA Code
HOG
Summary
ICAO Region
CARSAM
ICAO Territory
Location

Holguin, Holguin

Serving
Holguin
Elevation
361 ft
Coordinates
20° 47' 4" N , 76° 19' 6" W
KCC
Airport WX
Tropical Revolving Storm
Metar
Observation
MUHG 080950Z 06006KT 9000 NSC 17/15 Q1017
Station
Holguin Civ / Mil
Date/Time
2022-12-08 09:50:00
Wind direction
60°
Wind speed
06 kts
Lowest cloud amount
nil significant cloud
Temperature
17°C
Dew point
15°C
Humidity
88%
QNH
1017 hPa
Weather condition
n/a

Frank País Airport is an international airport that serves the city of Holguín in Cuba. It bears the name of Cuban revolutionary Frank País and is located in the municipio of Frank País.

Climatology

Tropical Savanna climate (Köppen climate classification Aw)

Runways

Designator Length Width Surface Rops
5/23 3238 45 ASP Yes/Yes

Airport map

Aerial View

SKYbrary Partners:

Safety knowledge contributed by: